sensor_id;sensor_type;location;lat;lon;timestamp;pressure;altitude;pressure_sealevel;temperature;humidity
5380;BME280;2713;42.680;23.310;2024-01-11T00:00:59;96035.97;;;0.69;59.98
5380;BME280;2713;42.680;23.310;2024-01-11T00:03:26;96042.44;;;0.74;59.87
5380;BME280;2713;42.680;23.310;2024-01-11T00:05:53;96043.47;;;0.72;61.30
5380;BME280;2713;42.680;23.310;2024-01-11T00:08:20;96037.72;;;0.68;60.76
5380;BME280;2713;42.680;23.310;2024-01-11T00:10:47;96031.97;;;0.65;60.55
5380;BME280;2713;42.680;23.310;2024-01-11T00:13:13;96031.44;;;0.45;61.34
5380;BME280;2713;42.680;23.310;2024-01-11T00:15:40;96030.34;;;0.49;61.53
5380;BME280;2713;42.680;23.310;2024-01-11T00:18:08;96022.03;;;0.46;60.85
5380;BME280;2713;42.680;23.310;2024-01-11T00:20:35;96022.50;;;0.38;61.53
5380;BME280;2713;42.680;23.310;2024-01-11T00:23:02;96026.31;;;0.60;61.30
5380;BME280;2713;42.680;23.310;2024-01-11T00:25:29;96026.97;;;0.49;60.25
5380;BME280;2713;42.680;23.310;2024-01-11T00:27:56;96034.38;;;0.54;61.11
5380;BME280;2713;42.680;23.310;2024-01-11T00:30:23;96023.44;;;0.37;61.69
5380;BME280;2713;42.680;23.310;2024-01-11T00:32:49;96028.91;;;0.31;62.06
5380;BME280;2713;42.680;23.310;2024-01-11T00:35:18;96024.00;;;0.28;61.67
5380;BME280;2713;42.680;23.310;2024-01-11T00:37:45;96023.03;;;0.17;62.93
5380;BME280;2713;42.680;23.310;2024-01-11T00:40:12;96019.63;;;0.02;62.28
5380;BME280;2713;42.680;23.310;2024-01-11T00:42:38;96020.53;;;0.01;62.75
5380;BME280;2713;42.680;23.310;2024-01-11T00:45:06;96015.34;;;0.03;62.88
5380;BME280;2713;42.680;23.310;2024-01-11T00:47:33;96012.22;;;0.26;62.45
5380;BME280;2713;42.680;23.310;2024-01-11T00:50:00;96024.19;;;0.25;61.84
5380;BME280;2713;42.680;23.310;2024-01-11T00:52:28;96013.13;;;0.25;62.82
5380;BME280;2713;42.680;23.310;2024-01-11T00:54:54;96009.50;;;0.15;62.06
5380;BME280;2713;42.680;23.310;2024-01-11T00:57:21;96006.16;;;0.00;61.99
5380;BME280;2713;42.680;23.310;2024-01-11T00:59:48;96007.44;;;-0.07;62.15
5380;BME280;2713;42.680;23.310;2024-01-11T01:02:15;96001.94;;;0.13;62.08
5380;BME280;2713;42.680;23.310;2024-01-11T01:04:42;95999.66;;;0.09;61.51
5380;BME280;2713;42.680;23.310;2024-01-11T01:07:08;95998.09;;;0.06;61.88
5380;BME280;2713;42.680;23.310;2024-01-11T01:09:37;95998.81;;;0.22;61.38
5380;BME280;2713;42.680;23.310;2024-01-11T01:12:04;96003.94;;;0.08;61.47
5380;BME280;2713;42.680;23.310;2024-01-11T01:14:31;95999.38;;;-0.01;61.38
5380;BME280;2713;42.680;23.310;2024-01-11T01:16:58;95995.63;;;0.05;60.88
5380;BME280;2713;42.680;23.310;2024-01-11T01:19:25;96001.94;;;-0.15;61.07
5380;BME280;2713;42.680;23.310;2024-01-11T01:21:52;96001.13;;;-0.02;60.77
5380;BME280;2713;42.680;23.310;2024-01-11T01:24:19;96004.09;;;0.19;59.94
5380;BME280;2713;42.680;23.310;2024-01-11T01:26:47;96004.31;;;0.16;59.41
5380;BME280;2713;42.680;23.310;2024-01-11T01:29:14;96006.22;;;-0.02;59.80
5380;BME280;2713;42.680;23.310;2024-01-11T01:31:41;96008.50;;;-0.11;59.87
5380;BME280;2713;42.680;23.310;2024-01-11T01:34:07;95999.75;;;-0.07;60.19
5380;BME280;2713;42.680;23.310;2024-01-11T01:36:34;95996.75;;;-0.28;60.15
5380;BME280;2713;42.680;23.310;2024-01-11T01:39:01;96000.47;;;-0.19;59.50
5380;BME280;2713;42.680;23.310;2024-01-11T01:41:28;95991.91;;;-0.18;60.02
5380;BME280;2713;42.680;23.310;2024-01-11T01:43:56;95985.78;;;-0.16;59.78
5380;BME280;2713;42.680;23.310;2024-01-11T01:46:23;95988.25;;;-0.28;60.21
5380;BME280;2713;42.680;23.310;2024-01-11T01:48:53;95982.13;;;-0.26;60.76
5380;BME280;2713;42.680;23.310;2024-01-11T01:51:21;95969.25;;;-0.10;59.96
5380;BME280;2713;42.680;23.310;2024-01-11T01:53:49;95970.47;;;-0.16;60.09
5380;BME280;2713;42.680;23.310;2024-01-11T01:56:19;95966.44;;;-0.06;60.23
5380;BME280;2713;42.680;23.310;2024-01-11T01:58:48;95964.63;;;-0.04;59.65
5380;BME280;2713;42.680;23.310;2024-01-11T02:01:19;95964.06;;;-0.09;60.15
5380;BME280;2713;42.680;23.310;2024-01-11T02:03:49;95949.50;;;-0.21;59.73
5380;BME280;2713;42.680;23.310;2024-01-11T02:06:16;95961.97;;;-0.16;59.62
5380;BME280;2713;42.680;23.310;2024-01-11T02:08:44;95957.03;;;-0.47;60.00
5380;BME280;2713;42.680;23.310;2024-01-11T02:11:12;95959.94;;;-0.68;61.95
5380;BME280;2713;42.680;23.310;2024-01-11T02:13:39;95956.63;;;-0.98;62.31
5380;BME280;2713;42.680;23.310;2024-01-11T02:16:06;95956.84;;;-0.73;61.19
5380;BME280;2713;42.680;23.310;2024-01-11T02:18:34;95956.03;;;-1.17;61.70
5380;BME280;2713;42.680;23.310;2024-01-11T02:21:03;95958.53;;;-1.31;62.76
5380;BME280;2713;42.680;23.310;2024-01-11T02:23:33;95956.34;;;-1.53;63.38
5380;BME280;2713;42.680;23.310;2024-01-11T02:26:04;95959.53;;;-1.49;63.36
5380;BME280;2713;42.680;23.310;2024-01-11T02:28:31;95955.41;;;-1.36;62.53
5380;BME280;2713;42.680;23.310;2024-01-11T02:30:58;95957.34;;;-1.26;62.54
5380;BME280;2713;42.680;23.310;2024-01-11T02:33:24;95948.94;;;-1.12;62.49
5380;BME280;2713;42.680;23.310;2024-01-11T02:35:52;95946.50;;;-1.29;62.08
5380;BME280;2713;42.680;23.310;2024-01-11T02:38:19;95958.75;;;-1.20;62.47
5380;BME280;2713;42.680;23.310;2024-01-11T02:40:48;95955.44;;;-0.92;61.34
5380;BME280;2713;42.680;23.310;2024-01-11T02:43:16;95950.47;;;-0.80;61.17
5380;BME280;2713;42.680;23.310;2024-01-11T02:45:43;95947.56;;;-0.74;60.26
5380;BME280;2713;42.680;23.310;2024-01-11T02:48:10;95945.53;;;-0.83;60.95
5380;BME280;2713;42.680;23.310;2024-01-11T02:50:36;95941.53;;;-0.87;61.42
5380;BME280;2713;42.680;23.310;2024-01-11T02:53:03;95936.38;;;-1.01;61.36
5380;BME280;2713;42.680;23.310;2024-01-11T02:55:30;95941.09;;;-1.09;61.92
5380;BME280;2713;42.680;23.310;2024-01-11T02:57:56;95940.84;;;-1.05;61.64
5380;BME280;2713;42.680;23.310;2024-01-11T03:00:25;95942.59;;;-0.91;61.52
5380;BME280;2713;42.680;23.310;2024-01-11T03:02:52;95935.66;;;-1.03;61.75
5380;BME280;2713;42.680;23.310;2024-01-11T03:05:18;95937.81;;;-1.11;61.42
5380;BME280;2713;42.680;23.310;2024-01-11T03:07:53;95941.06;;;-1.23;62.25
5380;BME280;2713;42.680;23.310;2024-01-11T03:10:20;95933.38;;;-1.37;62.64
5380;BME280;2713;42.680;23.310;2024-01-11T03:12:47;95930.31;;;-1.28;62.63
5380;BME280;2713;42.680;23.310;2024-01-11T03:15:14;95945.28;;;-1.08;62.23
5380;BME280;2713;42.680;23.310;2024-01-11T03:17:42;95942.81;;;-1.10;61.86
5380;BME280;2713;42.680;23.310;2024-01-11T03:20:10;95931.28;;;-1.01;61.69
5380;BME280;2713;42.680;23.310;2024-01-11T03:22:37;95941.09;;;-1.09;61.81
5380;BME280;2713;42.680;23.310;2024-01-11T03:25:11;95933.75;;;-1.29;62.39
5380;BME280;2713;42.680;23.310;2024-01-11T03:27:37;95940.56;;;-1.14;61.79
5380;BME280;2713;42.680;23.310;2024-01-11T03:30:06;95937.78;;;-1.25;62.03
5380;BME280;2713;42.680;23.310;2024-01-11T03:32:33;95928.25;;;-1.08;62.04
5380;BME280;2713;42.680;23.310;2024-01-11T03:35:01;95927.03;;;-1.16;61.60
5380;BME280;2713;42.680;23.310;2024-01-11T03:37:28;95933.06;;;-1.17;61.83
5380;BME280;2713;42.680;23.310;2024-01-11T03:39:55;95938.53;;;-1.09;61.08
5380;BME280;2713;42.680;23.310;2024-01-11T03:42:22;95933.59;;;-0.96;61.13
5380;BME280;2713;42.680;23.310;2024-01-11T03:44:50;95931.84;;;-0.96;61.21
5380;BME280;2713;42.680;23.310;2024-01-11T03:47:16;95927.00;;;-1.00;61.43
5380;BME280;2713;42.680;23.310;2024-01-11T03:49:44;95926.38;;;-0.90;61.25
5380;BME280;2713;42.680;23.310;2024-01-11T03:52:12;95923.19;;;-0.93;61.59
5380;BME280;2713;42.680;23.310;2024-01-11T03:54:39;95922.91;;;-1.03;61.76
5380;BME280;2713;42.680;23.310;2024-01-11T03:57:05;95912.75;;;-1.19;61.88
5380;BME280;2713;42.680;23.310;2024-01-11T03:59:32;95916.94;;;-1.18;62.06
5380;BME280;2713;42.680;23.310;2024-01-11T04:02:00;95915.97;;;-1.01;62.76
5380;BME280;2713;42.680;23.310;2024-01-11T04:04:27;95914.16;;;-0.99;62.89
5380;BME280;2713;42.680;23.310;2024-01-11T04:06:54;95909.88;;;-0.98;61.53
5380;BME280;2713;42.680;23.310;2024-01-11T04:09:22;95918.28;;;-0.96;61.71
5380;BME280;2713;42.680;23.310;2024-01-11T04:11:48;95916.38;;;-0.93;62.60
5380;BME280;2713;42.680;23.310;2024-01-11T04:14:15;95908.31;;;-1.01;62.94
5380;BME280;2713;42.680;23.310;2024-01-11T04:16:42;95905.44;;;-0.81;61.83
5380;BME280;2713;42.680;23.310;2024-01-11T04:19:09;95908.06;;;-0.68;61.80
5380;BME280;2713;42.680;23.310;2024-01-11T04:21:36;95878.63;;;-0.74;61.45
5380;BME280;2713;42.680;23.310;2024-01-11T04:24:04;95895.41;;;-0.70;60.95
5380;BME280;2713;42.680;23.310;2024-01-11T04:26:33;95891.59;;;-0.63;61.47
5380;BME280;2713;42.680;23.310;2024-01-11T04:29:00;95870.91;;;-0.72;60.78
5380;BME280;2713;42.680;23.310;2024-01-11T04:31:27;95898.06;;;-0.71;61.40
5380;BME280;2713;42.680;23.310;2024-01-11T04:33:54;95899.25;;;-0.77;62.04
5380;BME280;2713;42.680;23.310;2024-01-11T04:36:21;95904.88;;;-0.72;61.43
5380;BME280;2713;42.680;23.310;2024-01-11T04:38:48;95906.97;;;-0.78;62.25
5380;BME280;2713;42.680;23.310;2024-01-11T04:41:16;95912.19;;;-0.80;61.87
5380;BME280;2713;42.680;23.310;2024-01-11T04:43:44;95909.00;;;-0.83;61.98
5380;BME280;2713;42.680;23.310;2024-01-11T04:46:15;95907.44;;;-0.72;62.21
5380;BME280;2713;42.680;23.310;2024-01-11T04:48:43;95912.38;;;-0.83;61.71
5380;BME280;2713;42.680;23.310;2024-01-11T04:51:10;95914.00;;;-0.68;62.05
5380;BME280;2713;42.680;23.310;2024-01-11T04:53:38;95912.91;;;-0.78;61.90
5380;BME280;2713;42.680;23.310;2024-01-11T04:56:07;95903.94;;;-0.99;61.84
5380;BME280;2713;42.680;23.310;2024-01-11T04:58:34;95908.16;;;-0.98;62.05
5380;BME280;2713;42.680;23.310;2024-01-11T05:01:11;95915.44;;;-0.92;62.82
5380;BME280;2713;42.680;23.310;2024-01-11T05:03:42;95916.91;;;-0.88;61.98
5380;BME280;2713;42.680;23.310;2024-01-11T05:06:15;95910.97;;;-0.88;63.15
5380;BME280;2713;42.680;23.310;2024-01-11T05:08:43;95915.25;;;-0.89;62.69
5380;BME280;2713;42.680;23.310;2024-01-11T05:11:15;95917.09;;;-0.77;61.95
5380;BME280;2713;42.680;23.310;2024-01-11T05:13:42;95908.81;;;-0.80;61.07
5380;BME280;2713;42.680;23.310;2024-01-11T05:16:18;95909.78;;;-0.97;62.30
5380;BME280;2713;42.680;23.310;2024-01-11T05:18:45;95874.97;;;-0.98;61.00
5380;BME280;2713;42.680;23.310;2024-01-11T05:21:14;95902.69;;;-0.78;61.19
5380;BME280;2713;42.680;23.310;2024-01-11T05:23:42;95894.84;;;-0.75;60.99
5380;BME280;2713;42.680;23.310;2024-01-11T05:26:09;95887.69;;;-1.26;61.34
5380;BME280;2713;42.680;23.310;2024-01-11T05:28:43;95891.44;;;-1.18;61.50
5380;BME280;2713;42.680;23.310;2024-01-11T05:31:11;95891.19;;;-1.13;61.04
5380;BME280;2713;42.680;23.310;2024-01-11T05:33:41;95888.34;;;-1.09;60.85
5380;BME280;2713;42.680;23.310;2024-01-11T05:36:08;95887.91;;;-1.01;60.74
5380;BME280;2713;42.680;23.310;2024-01-11T05:38:35;95885.28;;;-0.99;60.30
5380;BME280;2713;42.680;23.310;2024-01-11T05:41:02;95882.31;;;-1.22;61.12
5380;BME280;2713;42.680;23.310;2024-01-11T05:43:29;95889.56;;;-1.00;60.26
5380;BME280;2713;42.680;23.310;2024-01-11T05:45:55;95880.66;;;-0.93;59.88
5380;BME280;2713;42.680;23.310;2024-01-11T05:48:22;95888.28;;;-1.07;60.34
5380;BME280;2713;42.680;23.310;2024-01-11T05:50:51;95881.59;;;-1.10;61.00
5380;BME280;2713;42.680;23.310;2024-01-11T05:53:18;95876.03;;;-1.16;60.85
5380;BME280;2713;42.680;23.310;2024-01-11T05:55:46;95880.06;;;-1.12;60.86
5380;BME280;2713;42.680;23.310;2024-01-11T05:58:12;95869.66;;;-1.23;61.64
5380;BME280;2713;42.680;23.310;2024-01-11T06:00:39;95860.72;;;-1.16;60.24
5380;BME280;2713;42.680;23.310;2024-01-11T06:03:07;95861.13;;;-1.08;60.30
5380;BME280;2713;42.680;23.310;2024-01-11T06:05:34;95868.50;;;-1.18;60.75
5380;BME280;2713;42.680;23.310;2024-01-11T06:08:02;95861.56;;;-1.16;61.14
5380;BME280;2713;42.680;23.310;2024-01-11T06:10:29;95863.09;;;-1.27;60.77
5380;BME280;2713;42.680;23.310;2024-01-11T06:12:56;95868.69;;;-1.07;60.51
5380;BME280;2713;42.680;23.310;2024-01-11T06:15:23;95863.66;;;-1.22;61.13
5380;BME280;2713;42.680;23.310;2024-01-11T06:17:50;95863.22;;;-1.15;61.00
5380;BME280;2713;42.680;23.310;2024-01-11T06:20:17;95869.78;;;-1.11;59.93
5380;BME280;2713;42.680;23.310;2024-01-11T06:22:43;95866.41;;;-1.11;60.63
5380;BME280;2713;42.680;23.310;2024-01-11T06:25:12;95858.94;;;-1.00;60.39
5380;BME280;2713;42.680;23.310;2024-01-11T06:27:38;95860.72;;;-1.16;60.93
5380;BME280;2713;42.680;23.310;2024-01-11T06:30:06;95849.56;;;-0.99;60.58
5380;BME280;2713;42.680;23.310;2024-01-11T06:32:33;95851.56;;;-0.90;61.34
5380;BME280;2713;42.680;23.310;2024-01-11T06:35:00;95855.28;;;-0.82;61.22
5380;BME280;2713;42.680;23.310;2024-01-11T06:37:27;95846.19;;;-0.72;60.83
5380;BME280;2713;42.680;23.310;2024-01-11T06:39:54;95844.56;;;-0.73;61.45
5380;BME280;2713;42.680;23.310;2024-01-11T06:42:22;95850.38;;;-0.71;61.25
5380;BME280;2713;42.680;23.310;2024-01-11T06:44:49;95841.25;;;-0.75;61.44
5380;BME280;2713;42.680;23.310;2024-01-11T06:47:16;95848.38;;;-1.08;61.82
5380;BME280;2713;42.680;23.310;2024-01-11T06:49:42;95842.19;;;-0.90;62.35
5380;BME280;2713;42.680;23.310;2024-01-11T06:52:09;95840.16;;;-0.85;61.86
5380;BME280;2713;42.680;23.310;2024-01-11T06:54:36;95843.81;;;-0.89;62.24
5380;BME280;2713;42.680;23.310;2024-01-11T06:57:03;95840.47;;;-0.89;62.47
5380;BME280;2713;42.680;23.310;2024-01-11T06:59:31;95843.81;;;-0.75;62.28
5380;BME280;2713;42.680;23.310;2024-01-11T07:01:58;95840.16;;;-0.85;61.67
5380;BME280;2713;42.680;23.310;2024-01-11T07:04:25;95838.06;;;-0.92;62.86
5380;BME280;2713;42.680;23.310;2024-01-11T07:06:52;95842.44;;;-1.09;68.43
5380;BME280;2713;42.680;23.310;2024-01-11T07:09:18;95840.28;;;-0.72;68.93
5380;BME280;2713;42.680;23.310;2024-01-11T07:11:45;95843.09;;;-0.77;62.57
5380;BME280;2713;42.680;23.310;2024-01-11T07:14:12;95851.50;;;-1.03;63.26
5380;BME280;2713;42.680;23.310;2024-01-11T07:16:40;95842.56;;;-0.96;62.79
5380;BME280;2713;42.680;23.310;2024-01-11T07:19:07;95838.06;;;-0.92;63.25
5380;BME280;2713;42.680;23.310;2024-01-11T07:21:34;95836.25;;;-1.19;63.21
5380;BME280;2713;42.680;23.310;2024-01-11T07:24:01;95839.81;;;-1.07;63.35
5380;BME280;2713;42.680;23.310;2024-01-11T07:26:28;95839.25;;;-1.12;63.01
5380;BME280;2713;42.680;23.310;2024-01-11T07:28:54;95831.34;;;-0.93;63.10
5380;BME280;2713;42.680;23.310;2024-01-11T07:31:21;95833.97;;;-0.95;63.21
5380;BME280;2713;42.680;23.310;2024-01-11T07:33:50;95833.69;;;-1.19;62.82
5380;BME280;2713;42.680;23.310;2024-01-11T07:36:16;95839.34;;;-1.14;63.12
5380;BME280;2713;42.680;23.310;2024-01-11T07:38:46;95839.06;;;-0.95;63.11
5380;BME280;2713;42.680;23.310;2024-01-11T07:41:13;95833.97;;;-0.95;62.86
5380;BME280;2713;42.680;23.310;2024-01-11T07:43:40;95834.34;;;-0.73;62.38
5380;BME280;2713;42.680;23.310;2024-01-11T07:46:07;95832.31;;;-0.68;65.78
5380;BME280;2713;42.680;23.310;2024-01-11T07:48:34;95835.41;;;-0.34;62.17
5380;BME280;2713;42.680;23.310;2024-01-11T07:51:02;95837.41;;;-0.39;61.96
5380;BME280;2713;42.680;23.310;2024-01-11T07:53:30;95832.69;;;-0.45;62.00
5380;BME280;2713;42.680;23.310;2024-01-11T07:55:57;95831.84;;;-0.46;61.23
5380;BME280;2713;42.680;23.310;2024-01-11T07:58:24;95821.63;;;-0.32;61.14
5380;BME280;2713;42.680;23.310;2024-01-11T08:00:51;95823.19;;;-0.58;60.80
5380;BME280;2713;42.680;23.310;2024-01-11T08:03:19;95821.19;;;-0.53;60.69
5380;BME280;2713;42.680;23.310;2024-01-11T08:05:45;95809.81;;;-0.75;61.12
5380;BME280;2713;42.680;23.310;2024-01-11T08:08:17;95822.03;;;-0.80;61.90
5380;BME280;2713;42.680;23.310;2024-01-11T08:10:44;95814.13;;;-0.76;62.30
5380;BME280;2713;42.680;23.310;2024-01-11T08:13:10;95825.03;;;-0.60;61.65
5380;BME280;2713;42.680;23.310;2024-01-11T08:15:38;95820.09;;;-0.48;61.03
5380;BME280;2713;42.680;23.310;2024-01-11T08:18:05;95819.75;;;-0.57;61.70
5380;BME280;2713;42.680;23.310;2024-01-11T08:20:32;95813.63;;;-0.54;61.99
5380;BME280;2713;42.680;23.310;2024-01-11T08:22:59;95807.06;;;-0.58;61.86
5380;BME280;2713;42.680;23.310;2024-01-11T08:25:28;95803.75;;;-0.32;60.80
5380;BME280;2713;42.680;23.310;2024-01-11T08:27:55;95804.00;;;-0.36;61.99
5380;BME280;2713;42.680;23.310;2024-01-11T08:30:21;95808.38;;;-0.24;60.74
5380;BME280;2713;42.680;23.310;2024-01-11T08:32:49;95793.59;;;0.20;60.30
5380;BME280;2713;42.680;23.310;2024-01-11T08:35:15;95803.16;;;0.43;59.52
5380;BME280;2713;42.680;23.310;2024-01-11T08:37:42;95808.19;;;0.58;58.35
5380;BME280;2713;42.680;23.310;2024-01-11T08:40:10;95804.72;;;0.71;58.67
5380;BME280;2713;42.680;23.310;2024-01-11T08:42:38;95808.69;;;0.63;58.53
5380;BME280;2713;42.680;23.310;2024-01-11T08:45:07;95784.22;;;0.46;59.19
5380;BME280;2713;42.680;23.310;2024-01-11T08:47:34;95802.03;;;0.47;59.15
5380;BME280;2713;42.680;23.310;2024-01-11T08:50:01;95799.81;;;0.68;58.67
5380;BME280;2713;42.680;23.310;2024-01-11T08:52:31;95802.66;;;0.64;58.50
5380;BME280;2713;42.680;23.310;2024-01-11T08:54:58;95788.25;;;0.75;58.63
5380;BME280;2713;42.680;23.310;2024-01-11T08:57:25;95783.44;;;0.71;58.96
5380;BME280;2713;42.680;23.310;2024-01-11T08:59:53;95785.19;;;0.58;59.09
5380;BME280;2713;42.680;23.310;2024-01-11T09:02:21;95782.91;;;0.66;59.38
5380;BME280;2713;42.680;23.310;2024-01-11T09:04:47;95779.22;;;0.70;59.15
5380;BME280;2713;42.680;23.310;2024-01-11T09:07:14;95777.81;;;0.91;58.17
5380;BME280;2713;42.680;23.310;2024-01-11T09:09:42;95772.19;;;0.98;57.34
5380;BME280;2713;42.680;23.310;2024-01-11T09:12:09;95767.34;;;0.94;57.90
5380;BME280;2713;42.680;23.310;2024-01-11T09:14:36;95767.47;;;1.05;57.62
5380;BME280;2713;42.680;23.310;2024-01-11T09:17:04;95765.13;;;1.02;57.70
5380;BME280;2713;42.680;23.310;2024-01-11T09:19:31;95756.69;;;1.13;57.33
5380;BME280;2713;42.680;23.310;2024-01-11T09:21:59;95756.66;;;1.25;57.74
5380;BME280;2713;42.680;23.310;2024-01-11T09:24:26;95749.91;;;1.24;57.75
5380;BME280;2713;42.680;23.310;2024-01-11T09:26:53;95753.41;;;1.11;58.10
5380;BME280;2713;42.680;23.310;2024-01-11T09:29:20;95750.34;;;1.18;56.98
5380;BME280;2713;42.680;23.310;2024-01-11T09:31:46;95740.69;;;1.22;57.19
5380;BME280;2713;42.680;23.310;2024-01-11T09:34:14;95741.53;;;1.22;57.38
5380;BME280;2713;42.680;23.310;2024-01-11T09:36:41;95733.72;;;1.36;56.64
5380;BME280;2713;42.680;23.310;2024-01-11T09:39:08;95734.91;;;1.43;55.44
5380;BME280;2713;42.680;23.310;2024-01-11T09:41:36;95730.19;;;1.37;56.35
5380;BME280;2713;42.680;23.310;2024-01-11T09:44:04;95724.31;;;1.24;56.84
5380;BME280;2713;42.680;23.310;2024-01-11T09:46:31;95700.72;;;1.32;56.39
5380;BME280;2713;42.680;23.310;2024-01-11T09:49:00;95710.84;;;1.10;56.99
5380;BME280;2713;42.680;23.310;2024-01-11T09:51:34;95702.19;;;1.23;56.77
5380;BME280;2713;42.680;23.310;2024-01-11T09:54:05;95691.75;;;1.26;57.34
5380;BME280;2713;42.680;23.310;2024-01-11T09:56:33;95690.09;;;1.25;57.54
5380;BME280;2713;42.680;23.310;2024-01-11T09:59:01;95688.13;;;1.05;57.78
5380;BME280;2713;42.680;23.310;2024-01-11T10:01:31;95689.56;;;0.96;57.87
5380;BME280;2713;42.680;23.310;2024-01-11T10:03:58;95680.00;;;1.11;57.75
5380;BME280;2713;42.680;23.310;2024-01-11T10:06:26;95676.53;;;1.36;57.53
5380;BME280;2713;42.680;23.310;2024-01-11T10:08:55;95667.59;;;1.41;57.51
5380;BME280;2713;42.680;23.310;2024-01-11T10:11:22;95666.16;;;1.50;56.61
5380;BME280;2713;42.680;23.310;2024-01-11T10:13:48;95664.13;;;1.42;57.89
5380;BME280;2713;42.680;23.310;2024-01-11T10:16:22;95654.78;;;1.41;58.07
5380;BME280;2713;42.680;23.310;2024-01-11T10:18:49;95658.09;;;1.54;58.43
5380;BME280;2713;42.680;23.310;2024-01-11T10:21:19;95650.91;;;1.60;57.75
5380;BME280;2713;42.680;23.310;2024-01-11T10:23:46;95643.28;;;1.71;56.59
5380;BME280;2713;42.680;23.310;2024-01-11T10:26:17;95638.34;;;1.91;55.35
5380;BME280;2713;42.680;23.310;2024-01-11T10:28:44;95635.66;;;1.93;55.61
5380;BME280;2713;42.680;23.310;2024-01-11T10:31:11;95638.59;;;2.11;54.46
5380;BME280;2713;42.680;23.310;2024-01-11T10:33:40;95606.66;;;2.03;54.66
5380;BME280;2713;42.680;23.310;2024-01-11T10:36:07;95618.00;;;2.12;56.04
5380;BME280;2713;42.680;23.310;2024-01-11T10:38:36;95616.34;;;2.11;55.62
5380;BME280;2713;42.680;23.310;2024-01-11T10:41:05;95606.81;;;2.24;55.11
5380;BME280;2713;42.680;23.310;2024-01-11T10:43:37;95608.31;;;2.16;56.11
5380;BME280;2713;42.680;23.310;2024-01-11T10:46:04;95604.00;;;2.16;56.05
5380;BME280;2713;42.680;23.310;2024-01-11T10:48:37;95605.63;;;1.95;56.63
5380;BME280;2713;42.680;23.310;2024-01-11T10:51:07;95600.72;;;2.03;57.18
5380;BME280;2713;42.680;23.310;2024-01-11T10:53:41;95595.50;;;2.04;57.69
5380;BME280;2713;42.680;23.310;2024-01-11T10:56:11;95594.78;;;1.91;56.79
5380;BME280;2713;42.680;23.310;2024-01-11T10:58:41;95588.94;;;2.00;57.02
5380;BME280;2713;42.680;23.310;2024-01-11T11:01:10;95580.47;;;2.11;56.81
5380;BME280;2713;42.680;23.310;2024-01-11T11:03:37;95575.34;;;2.22;55.61
5380;BME280;2713;42.680;23.310;2024-01-11T11:06:05;95560.19;;;2.41;55.21
5380;BME280;2713;42.680;23.310;2024-01-11T11:08:33;95557.94;;;2.59;55.80
5380;BME280;2713;42.680;23.310;2024-01-11T11:11:02;95555.72;;;2.77;54.48
5380;BME280;2713;42.680;23.310;2024-01-11T11:13:31;95546.84;;;2.81;54.62
5380;BME280;2713;42.680;23.310;2024-01-11T11:15:59;95538.00;;;2.63;55.26
5380;BME280;2713;42.680;23.310;2024-01-11T11:18:29;95533.13;;;2.60;55.56
5380;BME280;2713;42.680;23.310;2024-01-11T11:20:56;95535.69;;;2.37;56.88
5380;BME280;2713;42.680;23.310;2024-01-11T11:23:24;95527.19;;;2.37;57.18
5380;BME280;2713;42.680;23.310;2024-01-11T11:25:53;95523.59;;;2.39;56.87
5380;BME280;2713;42.680;23.310;2024-01-11T11:28:21;95514.44;;;2.58;56.36
5380;BME280;2713;42.680;23.310;2024-01-11T11:30:49;95505.19;;;2.77;55.23
5380;BME280;2713;42.680;23.310;2024-01-11T11:33:20;95501.09;;;2.75;56.10
5380;BME280;2713;42.680;23.310;2024-01-11T11:35:51;95498.16;;;2.90;55.90
5380;BME280;2713;42.680;23.310;2024-01-11T11:38:23;95487.03;;;3.01;56.00
5380;BME280;2713;42.680;23.310;2024-01-11T11:40:52;95479.38;;;2.90;55.16
5380;BME280;2713;42.680;23.310;2024-01-11T11:43:20;95481.56;;;2.94;55.25
5380;BME280;2713;42.680;23.310;2024-01-11T11:45:49;95477.47;;;3.24;56.86
5380;BME280;2713;42.680;23.310;2024-01-11T11:48:51;95471.56;;;3.12;55.42
5380;BME280;2713;42.680;23.310;2024-01-11T11:51:18;95477.41;;;3.14;55.19
5380;BME280;2713;42.680;23.310;2024-01-11T11:53:47;95472.50;;;3.11;55.24
5380;BME280;2713;42.680;23.310;2024-01-11T12:42:04;95376.69;;;5.63;57.58
5380;BME280;2713;42.680;23.310;2024-01-11T12:44:31;95383.94;;;5.50;56.07
5380;BME280;2713;42.680;23.310;2024-01-11T12:46:58;95373.72;;;5.68;55.10
5380;BME280;2713;42.680;23.310;2024-01-11T12:49:25;95375.59;;;5.75;54.94
5380;BME280;2713;42.680;23.310;2024-01-11T12:51:51;95364.94;;;5.41;54.86
5380;BME280;2713;42.680;23.310;2024-01-11T12:54:18;95367.16;;;5.36;55.85
5380;BME280;2713;42.680;23.310;2024-01-11T12:56:46;95360.97;;;5.20;55.77
5380;BME280;2713;42.680;23.310;2024-01-11T12:59:15;95363.38;;;5.31;55.36
5380;BME280;2713;42.680;23.310;2024-01-11T13:01:42;95357.69;;;5.18;55.79
5380;BME280;2713;42.680;23.310;2024-01-11T13:04:09;95354.06;;;5.01;56.24
5380;BME280;2713;42.680;23.310;2024-01-11T13:06:36;95360.16;;;5.09;56.31
5380;BME280;2713;42.680;23.310;2024-01-11T13:09:03;95352.44;;;5.09;56.24
5380;BME280;2713;42.680;23.310;2024-01-11T13:11:33;95352.97;;;5.13;55.66
5380;BME280;2713;42.680;23.310;2024-01-11T13:14:00;95344.97;;;4.97;55.86
5380;BME280;2713;42.680;23.310;2024-01-11T13:16:33;95341.75;;;4.95;56.66
5380;BME280;2713;42.680;23.310;2024-01-11T13:19:00;95346.09;;;4.85;57.03
5380;BME280;2713;42.680;23.310;2024-01-11T13:21:26;95329.28;;;4.81;57.23
5380;BME280;2713;42.680;23.310;2024-01-11T13:23:53;95337.03;;;4.71;57.91
5380;BME280;2713;42.680;23.310;2024-01-11T13:26:20;95326.84;;;4.70;58.04
5380;BME280;2713;42.680;23.310;2024-01-11T13:28:47;95325.09;;;4.70;57.80
5380;BME280;2713;42.680;23.310;2024-01-11T13:31:14;95319.81;;;4.81;57.97
5380;BME280;2713;42.680;23.310;2024-01-11T13:33:43;95311.97;;;4.83;57.88
5380;BME280;2713;42.680;23.310;2024-01-11T13:36:09;95306.41;;;4.78;57.50
5380;BME280;2713;42.680;23.310;2024-01-11T13:38:36;95311.31;;;4.62;57.31
5380;BME280;2713;42.680;23.310;2024-01-11T13:41:03;95309.69;;;4.51;57.49
5380;BME280;2713;42.680;23.310;2024-01-11T13:43:33;95316.84;;;4.57;58.00
5380;BME280;2713;42.680;23.310;2024-01-11T13:46:00;95309.53;;;4.52;57.90
5380;BME280;2713;42.680;23.310;2024-01-11T13:48:29;95303.06;;;4.48;58.87
5380;BME280;2713;42.680;23.310;2024-01-11T13:50:58;95290.03;;;4.50;58.06
5380;BME280;2713;42.680;23.310;2024-01-11T13:53:26;95296.41;;;4.65;57.34
5380;BME280;2713;42.680;23.310;2024-01-11T13:55:53;95296.75;;;4.80;57.08
5380;BME280;2713;42.680;23.310;2024-01-11T13:58:21;95300.00;;;4.91;57.36
5380;BME280;2713;42.680;23.310;2024-01-11T14:00:47;95288.34;;;4.87;58.27
5380;BME280;2713;42.680;23.310;2024-01-11T14:03:15;95282.69;;;4.74;58.67